createdAt,value
2023-05-03T00:00:55.595Z,2.70
2023-05-03T00:03:25.883Z,2.90
2023-05-03T00:05:52.691Z,2.80
2023-05-03T00:08:19.495Z,3.30
2023-05-03T00:10:46.243Z,3.40
2023-05-03T00:13:13.591Z,3.40
2023-05-03T00:15:40.569Z,4.40
2023-05-03T00:18:07.504Z,3.60
2023-05-03T00:20:34.470Z,3.90
2023-05-03T00:23:02.395Z,4.00
2023-05-03T00:25:29.673Z,3.90
2023-05-03T00:27:57.706Z,3.20
2023-05-03T00:30:25.475Z,3.20
2023-05-03T00:32:52.384Z,2.80
2023-05-03T00:35:19.404Z,2.50
2023-05-03T00:37:46.313Z,2.60
2023-05-03T00:40:15.456Z,2.10
2023-05-03T00:42:42.331Z,2.00
2023-05-03T00:45:09.509Z,1.90
2023-05-03T00:47:36.934Z,2.10
2023-05-03T00:50:05.023Z,2.00
2023-05-03T00:52:32.139Z,2.40
2023-05-03T00:54:58.984Z,2.20
2023-05-03T00:57:25.781Z,1.90
2023-05-03T00:59:53.032Z,2.50
2023-05-03T01:02:19.911Z,2.10
2023-05-03T01:04:47.186Z,2.20
2023-05-03T01:07:32.849Z,2.00
2023-05-03T01:10:39.075Z,2.50
2023-05-03T01:13:30.546Z,2.20
2023-05-03T01:16:10.273Z,2.80
2023-05-03T01:18:42.380Z,2.00
2023-05-03T01:21:09.741Z,1.90
2023-05-03T01:23:40.743Z,2.10
2023-05-03T01:26:21.645Z,1.90
2023-05-03T01:28:48.603Z,2.00
2023-05-03T01:31:29.031Z,2.00
2023-05-03T01:34:10.908Z,2.30
2023-05-03T01:36:37.789Z,2.00
2023-05-03T01:39:07.922Z,2.50
2023-05-03T01:41:36.323Z,2.40
2023-05-03T01:44:03.612Z,2.80
2023-05-03T01:46:30.453Z,2.70
2023-05-03T01:48:57.235Z,2.50
2023-05-03T01:51:24.166Z,2.50
2023-05-03T01:53:50.940Z,2.80
2023-05-03T01:56:17.693Z,2.60
2023-05-03T01:58:44.573Z,2.60
2023-05-03T02:01:11.431Z,2.00
2023-05-03T02:03:38.327Z,2.00
2023-05-03T02:06:05.339Z,2.40
2023-05-03T02:08:32.263Z,2.40
2023-05-03T02:10:59.613Z,2.20
2023-05-03T02:13:26.433Z,2.20
2023-05-03T02:15:53.326Z,2.00
2023-05-03T02:18:20.481Z,2.50
2023-05-03T02:20:47.437Z,2.60
2023-05-03T02:23:14.314Z,2.10
2023-05-03T02:25:41.385Z,2.80
2023-05-03T02:28:09.347Z,2.30
2023-05-03T02:30:36.341Z,2.50
2023-05-03T02:33:03.233Z,2.10
2023-05-03T02:35:31.182Z,2.60
2023-05-03T02:37:58.090Z,2.50
2023-05-03T02:40:25.557Z,2.30
2023-05-03T02:42:53.461Z,2.60
2023-05-03T02:45:23.080Z,2.30
2023-05-03T02:47:49.892Z,2.70
2023-05-03T02:50:16.915Z,2.30
2023-05-03T02:52:43.794Z,2.50
2023-05-03T02:55:10.646Z,2.50
2023-05-03T02:57:37.796Z,2.60
2023-05-03T03:00:06.175Z,2.80
2023-05-03T03:02:33.374Z,2.30
2023-05-03T03:05:00.420Z,2.20
2023-05-03T03:07:28.613Z,2.20
2023-05-03T03:09:55.968Z,2.20
2023-05-03T03:12:22.832Z,2.60
2023-05-03T03:14:50.038Z,2.50
2023-05-03T03:17:16.920Z,2.90
2023-05-03T03:19:43.970Z,2.70
2023-05-03T03:22:11.043Z,2.50
2023-05-03T03:24:38.655Z,2.40
2023-05-03T03:27:05.610Z,2.60
2023-05-03T03:29:33.050Z,2.70
2023-05-03T03:32:00.548Z,2.50
2023-05-03T03:34:27.449Z,2.80
2023-05-03T03:36:54.426Z,3.10
2023-05-03T03:39:21.362Z,2.70
2023-05-03T03:41:48.565Z,2.40
2023-05-03T03:44:15.428Z,2.40
2023-05-03T03:46:42.699Z,2.60
2023-05-03T03:49:09.830Z,2.20
2023-05-03T03:51:36.970Z,2.30
2023-05-03T03:54:03.967Z,2.60
2023-05-03T03:56:32.273Z,2.70
2023-05-03T03:59:00.058Z,2.70
2023-05-03T04:01:26.929Z,2.60
2023-05-03T04:03:54.081Z,2.50
2023-05-03T04:06:21.083Z,2.60
2023-05-03T04:08:49.366Z,2.40
2023-05-03T04:11:16.812Z,3.00
2023-05-03T04:13:48.492Z,2.30
2023-05-03T04:16:15.962Z,3.00
2023-05-03T04:18:43.885Z,2.60
2023-05-03T04:21:10.818Z,2.70
2023-05-03T04:23:38.665Z,3.00
2023-05-03T04:26:06.571Z,2.70
2023-05-03T04:28:35.466Z,2.40
2023-05-03T04:31:02.463Z,2.50
2023-05-03T04:33:31.393Z,2.20
2023-05-03T04:36:02.358Z,2.00
2023-05-03T04:38:29.529Z,2.40
2023-05-03T04:40:58.442Z,2.40
2023-05-03T04:43:25.532Z,2.20
2023-05-03T04:45:53.663Z,2.30
2023-05-03T04:48:22.781Z,2.50
2023-05-03T04:50:49.729Z,2.80
2023-05-03T04:53:18.158Z,2.40
2023-05-03T04:55:48.569Z,2.50
2023-05-03T04:58:15.643Z,2.30
2023-05-03T05:00:43.079Z,1.90
2023-05-03T05:03:15.078Z,2.70
2023-05-03T05:05:42.016Z,2.30
2023-05-03T05:08:09.433Z,2.30
2023-05-03T05:10:43.139Z,2.50
2023-05-03T05:13:11.844Z,2.50
2023-05-03T05:15:38.880Z,3.00
2023-05-03T05:18:05.877Z,2.70
2023-05-03T05:20:32.813Z,2.70
2023-05-03T05:22:59.671Z,2.80
2023-05-03T05:25:27.403Z,2.20
2023-05-03T05:27:54.563Z,2.20
2023-05-03T05:30:23.577Z,2.50
2023-05-03T05:32:51.025Z,2.50
2023-05-03T05:35:19.382Z,1.80
2023-05-03T05:37:46.970Z,2.60
2023-05-03T05:40:15.329Z,3.00
2023-05-03T05:42:48.795Z,3.00
2023-05-03T05:45:15.817Z,2.50
2023-05-03T05:47:42.771Z,2.60
2023-05-03T05:50:17.424Z,3.50
2023-05-03T05:52:51.428Z,5.20
2023-05-03T05:55:18.860Z,4.60
2023-05-03T05:57:46.294Z,4.20
2023-05-03T06:00:15.959Z,3.80
2023-05-03T06:02:44.671Z,3.50
2023-05-03T06:05:16.198Z,5.90
2023-05-03T06:09:17.264Z,5.80
2023-05-03T06:11:52.144Z,6.10
2023-05-03T06:14:20.023Z,5.30
2023-05-03T06:16:47.416Z,4.90
2023-05-03T06:19:14.152Z,4.30
2023-05-03T06:21:40.786Z,3.70
2023-05-03T06:24:07.636Z,3.50
2023-05-03T06:26:35.338Z,3.00
2023-05-03T06:29:02.797Z,3.60
2023-05-03T06:31:30.452Z,2.70
2023-05-03T06:33:57.933Z,2.50
2023-05-03T06:36:25.192Z,2.70
2023-05-03T06:38:53.016Z,2.80
2023-05-03T06:41:19.640Z,2.50
2023-05-03T06:43:46.889Z,2.20
2023-05-03T06:46:13.563Z,2.20
2023-05-03T06:48:40.378Z,2.40
2023-05-03T06:51:07.051Z,2.20
2023-05-03T06:53:33.748Z,2.60
2023-05-03T06:56:03.137Z,2.10
2023-05-03T06:58:30.315Z,2.20
2023-05-03T07:00:57.577Z,2.40
2023-05-03T07:03:25.864Z,2.20
2023-05-03T07:05:52.830Z,2.80
2023-05-03T07:08:19.720Z,2.60
2023-05-03T07:10:46.864Z,2.90
2023-05-03T07:13:15.811Z,1.80
2023-05-03T07:15:43.577Z,3.00
2023-05-03T07:18:10.450Z,2.10
2023-05-03T07:20:37.774Z,2.20
2023-05-03T07:23:05.958Z,3.10
2023-05-03T07:25:34.204Z,2.00
2023-05-03T07:28:01.320Z,2.10
2023-05-03T07:30:29.179Z,2.30
2023-05-03T07:32:56.392Z,1.90
2023-05-03T07:35:23.302Z,2.70
2023-05-03T07:37:49.966Z,1.90
2023-05-03T07:40:17.416Z,1.80
2023-05-03T07:42:44.320Z,2.20
2023-05-03T07:45:11.165Z,1.60
2023-05-03T07:47:39.589Z,2.20
2023-05-03T07:50:06.757Z,2.40
2023-05-03T07:52:36.887Z,2.70
2023-05-03T07:55:03.898Z,2.40
2023-05-03T07:57:31.158Z,2.70
2023-05-03T07:59:57.840Z,1.60
2023-05-03T08:02:24.665Z,2.10
2023-05-03T08:04:51.545Z,2.20
2023-05-03T08:07:18.485Z,2.50
2023-05-03T08:09:47.084Z,2.50
2023-05-03T08:12:13.747Z,2.20
2023-05-03T08:14:40.730Z,2.00
2023-05-03T08:17:07.356Z,2.00
2023-05-03T08:19:34.105Z,2.10
2023-05-03T08:22:00.687Z,2.60
2023-05-03T08:24:27.325Z,2.00
2023-05-03T08:26:54.756Z,2.50
2023-05-03T08:29:21.261Z,2.80
2023-05-03T08:31:47.890Z,3.00
2023-05-03T08:34:15.134Z,3.10
2023-05-03T08:36:41.756Z,2.50
2023-05-03T08:39:09.754Z,2.70
2023-05-03T08:41:36.600Z,2.70
2023-05-03T08:44:04.878Z,2.20
2023-05-03T08:46:36.541Z,3.00
2023-05-03T08:49:03.357Z,2.70
2023-05-03T08:51:31.141Z,2.60
2023-05-03T08:53:58.574Z,2.60
2023-05-03T08:56:29.723Z,2.40
2023-05-03T08:59:01.125Z,2.60
2023-05-03T09:01:28.580Z,2.80
2023-05-03T09:03:55.508Z,2.60
2023-05-03T09:06:25.403Z,2.30
2023-05-03T09:08:53.654Z,2.50
2023-05-03T09:11:21.108Z,3.50
2023-05-03T09:13:52.708Z,2.20
2023-05-03T09:16:24.004Z,2.60
2023-05-03T09:19:00.896Z,2.80
2023-05-03T09:21:28.295Z,2.50
2023-05-03T09:23:55.075Z,2.50
2023-05-03T09:26:37.251Z,2.80
2023-05-03T09:29:04.795Z,3.20
2023-05-03T09:31:32.738Z,2.90
2023-05-03T09:33:59.579Z,3.00
2023-05-03T09:36:29.046Z,2.70
2023-05-03T09:38:55.811Z,2.30
2023-05-03T09:41:29.190Z,2.90
2023-05-03T09:43:58.142Z,2.70
2023-05-03T09:46:25.092Z,2.90
2023-05-03T09:48:54.796Z,3.20
2023-05-03T09:51:21.685Z,3.30
2023-05-03T09:53:48.470Z,3.20
2023-05-03T09:56:16.583Z,2.80
2023-05-03T09:58:43.171Z,3.20
2023-05-03T10:01:10.152Z,2.70
2023-05-03T10:03:41.645Z,2.70
2023-05-03T10:06:24.962Z,2.60
2023-05-03T10:09:29.226Z,3.00
2023-05-03T10:11:58.712Z,3.10
2023-05-03T10:14:25.916Z,2.80
2023-05-03T10:17:07.734Z,2.70
2023-05-03T10:19:56.240Z,2.90
2023-05-03T10:22:23.303Z,2.90
2023-05-03T10:24:59.514Z,3.10
2023-05-03T10:27:43.478Z,3.20
2023-05-03T10:30:25.563Z,2.20
2023-05-03T10:32:52.252Z,2.10
2023-05-03T10:35:18.938Z,2.60
2023-05-03T10:37:48.054Z,3.10
2023-05-03T10:40:16.099Z,2.50
2023-05-03T10:42:50.234Z,2.80
2023-05-03T10:45:27.872Z,2.90
2023-05-03T10:48:12.699Z,2.50
2023-05-03T10:50:39.505Z,2.50
2023-05-03T10:53:06.176Z,2.60
2023-05-03T10:55:33.939Z,3.10
2023-05-03T10:58:00.876Z,2.40
2023-05-03T11:00:33.764Z,2.50
2023-05-03T11:03:18.991Z,2.70
2023-05-03T11:05:47.215Z,2.70
2023-05-03T11:08:17.821Z,3.30
2023-05-03T11:10:50.520Z,3.00
2023-05-03T11:13:17.940Z,2.60
2023-05-03T11:15:45.842Z,3.00
2023-05-03T11:18:14.857Z,2.70
2023-05-03T11:20:41.381Z,2.80
2023-05-03T11:23:08.294Z,2.80
2023-05-03T11:25:36.224Z,2.70
2023-05-03T11:28:03.755Z,3.20
2023-05-03T11:30:32.810Z,2.60
2023-05-03T11:32:59.589Z,2.60
2023-05-03T11:35:28.259Z,2.70
2023-05-03T11:37:54.983Z,2.90
2023-05-03T11:40:21.658Z,3.00
2023-05-03T11:42:51.625Z,2.70
2023-05-03T11:45:22.796Z,2.70
2023-05-03T11:47:50.517Z,3.00
2023-05-03T11:50:17.942Z,3.10
2023-05-03T11:52:45.073Z,3.20
2023-05-03T11:55:11.757Z,2.80
2023-05-03T11:57:38.568Z,3.10
2023-05-03T12:00:16.423Z,3.00
2023-05-03T12:02:44.637Z,2.90
2023-05-03T12:05:12.596Z,2.60
2023-05-03T12:07:40.781Z,3.00
2023-05-03T12:10:20.246Z,2.50
2023-05-03T12:13:00.233Z,3.00
2023-05-03T12:15:30.077Z,3.50
2023-05-03T12:18:00.170Z,3.60
2023-05-03T12:23:04.038Z,3.20
2023-05-03T12:25:33.882Z,2.90
2023-05-03T12:28:18.456Z,2.50
2023-05-03T12:30:46.791Z,3.00
2023-05-03T12:33:15.806Z,2.70
2023-05-03T12:35:46.756Z,3.00
2023-05-03T12:38:16.468Z,3.30
2023-05-03T12:40:44.588Z,3.00
2023-05-03T12:43:11.363Z,2.80
2023-05-03T12:45:40.529Z,2.90
2023-05-03T12:48:08.395Z,2.80
2023-05-03T12:50:38.737Z,3.00
2023-05-03T12:53:09.557Z,3.10
2023-05-03T12:55:42.887Z,3.00
2023-05-03T13:00:48.229Z,3.60
2023-05-03T13:03:32.743Z,3.70
2023-05-03T13:06:11.823Z,3.70
2023-05-03T13:08:48.874Z,3.60
2023-05-03T13:11:18.904Z,3.70
2023-05-03T13:13:45.861Z,3.40
2023-05-03T13:16:13.318Z,2.90
2023-05-03T13:18:42.184Z,3.30
2023-05-03T13:21:09.490Z,3.70
2023-05-03T13:23:36.006Z,3.20
2023-05-03T13:26:05.422Z,2.70
2023-05-03T13:28:32.301Z,3.30
2023-05-03T13:30:58.958Z,3.30
2023-05-03T13:33:26.713Z,3.10
2023-05-03T13:35:54.348Z,3.20
2023-05-03T13:38:20.926Z,3.10
2023-05-03T13:40:47.509Z,3.40
2023-05-03T13:43:14.566Z,3.60
2023-05-03T13:45:43.470Z,3.50
2023-05-03T13:48:18.775Z,3.00
2023-05-03T13:50:46.065Z,3.60
2023-05-03T13:53:13.074Z,3.30
2023-05-03T13:55:39.745Z,3.50
2023-05-03T13:58:06.391Z,3.60
2023-05-03T14:00:33.561Z,4.40
2023-05-03T14:03:00.836Z,3.70
2023-05-03T14:05:28.516Z,4.10
2023-05-03T14:07:56.876Z,3.80
2023-05-03T14:10:24.131Z,4.00
2023-05-03T14:12:52.696Z,3.70
2023-05-03T14:15:20.984Z,3.30
2023-05-03T14:17:47.727Z,3.60
2023-05-03T14:20:16.891Z,3.70
2023-05-03T14:22:44.114Z,3.80
2023-05-03T14:25:12.043Z,3.80
2023-05-03T14:27:38.919Z,3.60
2023-05-03T14:30:06.811Z,4.10
2023-05-03T14:32:34.247Z,4.10
2023-05-03T14:35:01.453Z,4.20
2023-05-03T14:37:28.481Z,3.90
2023-05-03T14:39:55.320Z,3.80
2023-05-03T14:42:22.060Z,3.70
2023-05-03T14:44:49.131Z,3.80
2023-05-03T14:47:15.913Z,3.70
2023-05-03T14:49:42.607Z,3.90
2023-05-03T14:52:09.182Z,4.30
2023-05-03T14:54:36.408Z,4.30
2023-05-03T14:57:03.966Z,4.60
2023-05-03T14:59:33.408Z,4.10
2023-05-03T15:02:00.363Z,4.10
2023-05-03T15:04:27.271Z,3.90
2023-05-03T15:06:54.670Z,4.10
2023-05-03T15:09:21.584Z,4.80
2023-05-03T15:11:50.530Z,3.90
2023-05-03T15:14:19.748Z,3.60
2023-05-03T15:16:47.288Z,4.10
2023-05-03T15:19:17.834Z,3.50
2023-05-03T15:21:49.383Z,4.40
2023-05-03T15:24:16.454Z,4.40
2023-05-03T15:26:43.593Z,4.00
2023-05-03T15:29:10.336Z,3.70
2023-05-03T15:31:37.985Z,3.90
2023-05-03T15:34:05.995Z,3.90
2023-05-03T15:36:32.967Z,3.90
2023-05-03T15:38:59.801Z,3.70
2023-05-03T15:41:26.786Z,3.40
2023-05-03T15:43:54.854Z,4.20
2023-05-03T15:46:21.518Z,3.90
2023-05-03T15:48:48.179Z,3.50
2023-05-03T15:51:14.830Z,4.20
2023-05-03T15:53:41.512Z,3.90
2023-05-03T15:56:08.581Z,3.80
2023-05-03T15:58:36.392Z,4.20
2023-05-03T16:01:03.449Z,3.80
2023-05-03T16:03:31.091Z,3.70
2023-05-03T16:05:58.207Z,3.70
2023-05-03T16:08:25.596Z,3.90
2023-05-03T16:10:54.105Z,3.80
2023-05-03T16:13:21.396Z,5.60
2023-05-03T16:15:51.571Z,4.40
2023-05-03T16:18:19.977Z,4.50
2023-05-03T16:20:47.313Z,4.70
2023-05-03T16:23:14.030Z,6.30
2023-05-03T16:25:40.649Z,5.30
2023-05-03T16:28:07.722Z,5.90
2023-05-03T16:30:35.035Z,5.90
2023-05-03T16:33:02.537Z,5.70
2023-05-03T16:35:29.171Z,5.60
2023-05-03T16:37:56.033Z,5.30
2023-05-03T16:40:22.625Z,5.00
2023-05-03T16:42:50.188Z,4.90
2023-05-03T16:45:18.859Z,6.20
2023-05-03T16:47:46.003Z,4.80
2023-05-03T16:50:12.594Z,6.30
2023-05-03T16:52:40.641Z,5.30
2023-05-03T16:55:08.698Z,5.10
2023-05-03T16:57:36.500Z,4.90
2023-05-03T17:00:10.488Z,5.10
2023-05-03T17:02:39.207Z,4.40
2023-05-03T17:05:07.585Z,4.80
2023-05-03T17:07:35.049Z,4.70
2023-05-03T17:10:02.855Z,4.50
2023-05-03T17:12:30.511Z,4.80
2023-05-03T17:14:57.298Z,4.40
2023-05-03T17:17:23.888Z,4.40
2023-05-03T17:19:50.574Z,5.20
2023-05-03T17:22:17.300Z,4.80
2023-05-03T17:24:43.974Z,4.60
2023-05-03T17:27:10.543Z,4.60
2023-05-03T17:29:37.803Z,5.20
2023-05-03T17:32:04.600Z,4.70
2023-05-03T17:34:31.339Z,5.60
2023-05-03T17:36:58.430Z,4.70
2023-05-03T17:39:27.780Z,4.40
2023-05-03T17:41:54.464Z,3.90
2023-05-03T17:44:22.314Z,4.10
2023-05-03T17:46:50.097Z,4.70
2023-05-03T17:49:16.746Z,4.10
2023-05-03T17:51:43.933Z,4.40
2023-05-03T17:54:13.021Z,4.10
2023-05-03T17:56:39.762Z,4.10
2023-05-03T17:59:08.105Z,4.40
2023-05-03T18:01:34.927Z,4.70
2023-05-03T18:04:01.839Z,4.40
2023-05-03T18:06:28.932Z,5.00
2023-05-03T18:08:55.734Z,4.70
2023-05-03T18:11:22.485Z,4.20
2023-05-03T18:13:49.534Z,4.10
2023-05-03T18:16:16.368Z,4.60
2023-05-03T18:18:42.970Z,4.70
2023-05-03T18:21:11.170Z,4.20
2023-05-03T18:26:28.369Z,4.60
2023-05-03T18:28:57.299Z,4.30
2023-05-03T18:31:28.297Z,4.00
2023-05-03T18:34:01.089Z,4.00
2023-05-03T18:36:31.877Z,4.60
2023-05-03T18:38:58.726Z,4.20
2023-05-03T18:41:25.580Z,3.70
2023-05-03T18:43:52.323Z,4.10
2023-05-03T18:46:19.645Z,4.30
2023-05-03T18:48:47.952Z,4.40
2023-05-03T18:51:15.089Z,4.00
2023-05-03T18:53:41.845Z,3.30
2023-05-03T18:56:08.614Z,4.20
2023-05-03T18:58:35.356Z,3.50
2023-05-03T19:01:02.260Z,3.80
2023-05-03T19:03:29.612Z,3.80
2023-05-03T19:06:08.623Z,4.00
2023-05-03T19:08:35.822Z,4.20
2023-05-03T19:11:09.723Z,4.30
2023-05-03T19:13:36.616Z,4.30
2023-05-03T19:16:03.827Z,3.70
2023-05-03T19:18:31.744Z,6.50
2023-05-03T19:20:58.846Z,4.50
2023-05-03T19:23:25.774Z,4.30
2023-05-03T19:25:52.785Z,4.30
2023-05-03T19:28:19.577Z,4.20
2023-05-03T19:30:51.399Z,3.10
2023-05-03T19:33:21.733Z,3.70
2023-05-03T19:35:48.649Z,4.30
2023-05-03T19:38:15.598Z,4.90
2023-05-03T19:40:42.483Z,3.20
2023-05-03T19:43:09.395Z,3.60
2023-05-03T19:45:42.009Z,3.30
2023-05-03T19:48:10.613Z,2.90
2023-05-03T19:50:37.550Z,3.80
2023-05-03T19:53:04.389Z,3.00
2023-05-03T19:55:31.432Z,3.30
2023-05-03T19:57:58.432Z,3.50
2023-05-03T20:00:27.106Z,3.30
2023-05-03T20:02:54.998Z,3.00
2023-05-03T20:05:22.136Z,2.90
2023-05-03T20:07:49.222Z,3.20
2023-05-03T20:10:16.423Z,3.20
2023-05-03T20:12:44.915Z,3.60
2023-05-03T20:15:11.781Z,3.10
2023-05-03T20:17:38.791Z,3.60
2023-05-03T20:20:07.057Z,3.50
2023-05-03T20:22:34.067Z,3.70
2023-05-03T20:25:01.078Z,4.00
2023-05-03T20:27:30.410Z,3.80
2023-05-03T20:29:57.875Z,3.30
2023-05-03T20:32:24.952Z,3.70
2023-05-03T20:34:52.207Z,3.60
2023-05-03T20:37:19.652Z,3.80
2023-05-03T20:39:46.621Z,3.60
2023-05-03T20:42:13.944Z,4.30
2023-05-03T20:44:41.201Z,3.20
2023-05-03T20:47:08.106Z,4.00
2023-05-03T20:49:34.993Z,3.80
2023-05-03T20:52:01.892Z,3.70
2023-05-03T20:54:28.878Z,3.50
2023-05-03T20:56:56.025Z,3.20
2023-05-03T20:59:22.829Z,3.20
2023-05-03T21:01:49.701Z,3.20
2023-05-03T21:04:16.576Z,2.90
2023-05-03T21:06:45.184Z,3.70
2023-05-03T21:09:12.447Z,3.00
2023-05-03T21:11:39.383Z,2.90
2023-05-03T21:14:06.682Z,3.10
2023-05-03T21:16:33.611Z,3.10
2023-05-03T21:19:01.449Z,3.80
2023-05-03T21:21:28.549Z,3.70
2023-05-03T21:23:55.404Z,3.50
2023-05-03T21:26:22.470Z,3.00
2023-05-03T21:28:49.465Z,3.00
2023-05-03T21:31:16.437Z,3.90
2023-05-03T21:33:44.470Z,3.40
2023-05-03T21:36:12.636Z,3.10
2023-05-03T21:38:39.937Z,3.20
2023-05-03T21:41:07.373Z,3.00
2023-05-03T21:43:35.451Z,2.90
2023-05-03T21:46:04.085Z,3.00
2023-05-03T21:48:31.786Z,2.80
2023-05-03T21:50:58.692Z,2.90
2023-05-03T21:53:25.668Z,3.30
2023-05-03T21:55:52.620Z,2.60
2023-05-03T21:58:19.507Z,2.70
2023-05-03T22:00:46.428Z,3.00
2023-05-03T22:03:15.077Z,2.80
2023-05-03T22:05:44.993Z,3.50
2023-05-03T22:08:17.166Z,2.60
2023-05-03T22:10:45.698Z,3.10
2023-05-03T22:13:13.303Z,3.20
2023-05-03T22:15:40.406Z,3.30
2023-05-03T22:18:07.542Z,2.30
2023-05-03T22:20:34.711Z,2.60
2023-05-03T22:23:02.737Z,3.00
2023-05-03T22:25:32.071Z,2.70
2023-05-03T22:28:00.906Z,3.50
2023-05-03T22:30:28.847Z,3.10
2023-05-03T22:32:55.697Z,3.10
2023-05-03T22:35:22.484Z,3.20
2023-05-03T22:37:49.507Z,3.20
2023-05-03T22:40:16.393Z,3.10
2023-05-03T22:42:43.230Z,2.90
2023-05-03T22:45:10.522Z,3.10
2023-05-03T22:47:37.819Z,3.00
2023-05-03T22:50:05.882Z,3.10
2023-05-03T22:52:33.086Z,3.00
2023-05-03T22:55:01.670Z,3.00
2023-05-03T22:57:28.549Z,3.10
2023-05-03T22:59:56.918Z,3.20
2023-05-03T23:02:24.228Z,3.10
2023-05-03T23:04:51.098Z,3.60
2023-05-03T23:07:18.241Z,2.80
2023-05-03T23:09:48.708Z,3.10
2023-05-03T23:12:15.546Z,3.10
2023-05-03T23:14:45.840Z,2.90
2023-05-03T23:17:13.135Z,2.90
2023-05-03T23:19:39.972Z,3.20
2023-05-03T23:22:07.702Z,3.60
2023-05-03T23:24:35.108Z,2.90
2023-05-03T23:27:02.024Z,3.10
2023-05-03T23:29:29.408Z,2.70
2023-05-03T23:31:56.960Z,2.80
2023-05-03T23:34:25.237Z,3.30
2023-05-03T23:36:52.193Z,3.30
2023-05-03T23:39:19.136Z,3.40
2023-05-03T23:41:46.017Z,4.00
2023-05-03T23:44:13.094Z,3.20
2023-05-03T23:46:41.450Z,3.40
2023-05-03T23:49:09.636Z,3.60
2023-05-03T23:51:37.722Z,2.80
2023-05-03T23:54:04.841Z,3.00
2023-05-03T23:56:33.165Z,2.70
2023-05-03T23:59:01.966Z,3.20
